ESGR/KVB METAR and TAF weather

Enter ICAO airport designator
Station Type Date Time Source
ESGR METAR 2019/02/20 23:20 UTC NOAA

ESGR 202320Z AUTO 15008KT 9999 OVC039/// 03/M05 Q1016


Station Type Date Time Source
ESGR Decoded METAR 2019/02/20 23:20 UTC NOAA

Skovde Flygplats, Sweden (ESGR) 58-27N 013-58E 105M
Feb 20, 2019 - 06:20 PM EST / 2019.02.20 2320 UTC
Wind: from the SSE (150 degrees) at 9 MPH (8 KT):0
Visibility: greater than 7 mile(s):0
Sky conditions: overcast
Temperature: 37 F (3 C)
Dew Point: 23 F (-5 C)
Relative Humidity: 55%
Pressure (altimeter): 30.00 in. Hg (1016 hPa)
ob: ESGR 202320Z AUTO 15008KT 9999 OVC039/// 03/M05 Q1016
cycle: 23

Station Type Date Time Source
ESGR TAF 2009/06/28 04:50 UTC NOAA

METAR ESGR 280450Z AUTO VRB02KT 9999NDV NCD 17/12 Q1020


Example: see airport list